Capetown, CA

1:25 PM PST on December 08, 2016 (GMT -0800)
Side yard | | Change Station

Elev 50 ft 40.58 °N, 124.26 °W | Updated 3 minutes ago

Rain
Rain
55.0 °F
Feels Like 55.0 °F
N
1.0
Wind Variable Wind from SSE
Gusts 2.0 mph

Today
High -- | Low -- °F
--% Chance of Precip.
Yesterday
High -- | Low -- °F
Precip. -- in
Pressure 29.98 in
Visibility 7.0 miles
Clouds Overcast 2800 ft
Dew Point 54 °F
Humidity 95%
Rainfall 0.03 in
Snow Depth Not available.
7:28 AM 4:50 PM
Waxing Gibbous, 67% visible
METAR KFOT 082115Z AUTO 13012KT 7SM OVC028 13/11 A2998 RMK AO1
Pressure 29.98 in
Visibility 7.0 miles
Clouds Overcast 2800 ft
Dew Point 54 °F
Humidity 95%
Rainfall 0.03 in
Snow Depth Not available.
7:28 AM 4:50 PM
Waxing Gibbous, 67% visible
METAR KFOT 082115Z AUTO 13012KT 7SM OVC028 13/11 A2998 RMK AO1

10-Day Weather Forecast

Almanac

Astronomy

Dec. 08, 2016 Rise Set
Actual Time
Civil Twilight
Nautical Twilight
Astronomical Twilight
Moon
Length of Visible Light
Length of Day
Tomorrow will be .
, % of the Moon is Illuminated

Today's Extremes

State Highs State Lows

Community

WunderPhotos

Upload Photos

1,956,277 photos uploaded!

WunderBlog® & News

Nearby

Air Quality

  Air Quality AQ Index Pollutant
Not available.

Snow Depth

Station Depth Elevation

Earthquake Activity

City Distance Mag. Time & Date
Minimum magnitude displayed is 2.5.

Coastal Water Temperatures

Place Temperature

Stations

Nearby Weather Stations

Station Location Temp. Windchill Dew Point Humidity Wind Precip. Elev Updated Type
                   

Watches & Warnings

There are currently no watches in effect.